Time;durP1;ratioP1;P1;durP2;ratioP2;P2;SDS_P1;SDS_P2;PMS_P1;PMS_P2;Temp;Humidity;BMP_temperature;BMP_pressure;BME280_temperature;BME280_humidity;BME280_pressure;Samples;Min_cycle;Max_cycle;Signal;HPM_P1;HPM_P2
2022/01/06 00:01:26;;;;;;;11.00;4.50;;;;;;;0.79;98.17;97908.67;105084;1274;72860;-68
2022/01/06 00:05:21;;;;;;;14.10;6.20;;;;;;;0.70;98.30;97909.64;105329;1273;59765;-68
2022/01/06 00:13:21;;;;;;;9.50;4.80;;;;;;;0.63;98.71;97913.44;105418;1273;74572;-68
2022/01/06 00:17:14;;;;;;;;;;;;;;;;;;;;;
2022/01/06 00:27:15;;;;;;;10.90;5.40;;;;;;;0.53;99.42;97932.68;104584;1279;60297;-67
2022/01/06 00:30:28;;;;;;;9.90;4.80;;;;;;;0.54;99.23;97933.17;104747;1279;73144;-67
2022/01/06 00:33:46;;;;;;;12.40;5.80;;;;;;;0.52;99.59;97935.17;104682;1279;68119;-68
2022/01/06 00:37:16;;;;;;;12.10;5.70;;;;;;;0.52;99.44;97937.65;104381;1280;74378;-67
2022/01/06 00:45:10;;;;;;;11.60;5.80;;;;;;;0.55;99.46;97943.58;104752;1279;59642;-68
2022/01/06 00:49:08;;;;;;;11.90;5.30;;;;;;;0.58;99.38;97956.23;104454;1279;71980;-68
2022/01/06 00:52:38;;;;;;;11.20;4.90;;;;;;;0.61;99.53;97952.90;104704;1275;68330;-67
2022/01/06 00:57:00;;;;;;;10.60;5.10;;;;;;;0.63;99.52;97957.30;104778;1274;71603;-67
2022/01/06 01:00:39;;;;;;;12.40;6.30;;;;;;;0.67;99.90;97962.73;105052;1273;59550;-67
2022/01/06 01:03:37;;;;;;;12.10;6.70;;;;;;;0.76;99.72;97968.95;104914;1274;59593;-67
2022/01/06 01:06:34;;;;;;;14.30;6.50;;;;;;;0.84;99.61;97964.84;105196;1273;73368;-67
2022/01/06 01:09:30;;;;;;;10.90;5.60;;;;;;;0.94;99.43;97970.99;104890;1274;66754;-68
2022/01/06 01:12:48;;;;;;;10.00;4.80;;;;;;;1.02;99.08;97972.66;104862;1274;71905;-67
2022/01/06 01:15:52;;;;;;;10.10;4.60;;;;;;;1.10;99.00;97975.79;105282;1274;59753;-67
2022/01/06 01:19:03;;;;;;;12.10;5.50;;;;;;;1.15;98.83;97982.91;104990;1274;59842;-67
2022/01/06 01:22:08;;;;;;;12.70;6.30;;;;;;;1.21;98.70;97991.40;105218;1274;73235;-68
2022/01/06 01:28:43;;;;;;;9.90;4.60;;;;;;;1.29;98.69;97997.67;105228;1273;72931;-68
2022/01/06 01:32:48;;;;;;;11.20;5.50;;;;;;;1.30;98.69;98000.17;105068;1274;59627;-68
2022/01/06 01:40:57;;;;;;;10.60;5.00;;;;;;;1.33;99.17;98010.84;104372;1283;73126;-68
2022/01/06 01:44:05;;;;;;;10.20;5.20;;;;;;;1.32;99.09;98013.01;104110;1283;67929;-68
2022/01/06 01:47:27;;;;;;;11.40;5.10;;;;;;;1.34;99.53;98018.62;104254;1283;73213;-67
2022/01/06 01:50:34;;;;;;;8.20;3.80;;;;;;;1.35;99.89;98027.60;104241;1283;59878;-67
2022/01/06 01:54:38;;;;;;;8.60;3.90;;;;;;;1.34;99.90;98034.31;104281;1283;61877;-68
2022/01/06 01:57:36;;;;;;;9.90;3.60;;;;;;;1.34;99.91;98033.80;104506;1283;73977;-68
2022/01/06 02:00:41;;;;;;;10.20;3.80;;;;;;;1.32;99.96;98037.63;104391;1283;68083;-67
2022/01/06 02:03:48;;;;;;;7.70;3.80;;;;;;;1.29;100.00;98049.19;104508;1280;72989;-68
2022/01/06 02:06:46;;;;;;;10.30;4.10;;;;;;;1.28;100.00;98054.66;104505;1280;59855;-67
2022/01/06 02:10:30;;;;;;;7.40;3.20;;;;;;;1.28;100.00;98066.02;104586;1279;60455;-67
2022/01/06 02:13:33;;;;;;;7.70;2.60;;;;;;;1.29;99.98;98067.34;104852;1274;71614;-67
2022/01/06 02:16:46;;;;;;;7.00;2.40;;;;;;;1.31;99.55;98079.10;105385;1274;68562;-68
2022/01/06 02:23:40;;;;;;;6.00;2.20;;;;;;;1.20;98.80;98101.21;103611;1274;1003317;-67
2022/01/06 02:27:25;;;;;;;7.00;1.90;;;;;;;1.17;98.82;98111.36;104940;1273;61834;-67
2022/01/06 02:30:27;;;;;;;5.30;1.70;;;;;;;1.13;98.48;98117.02;105244;1273;72835;-67
2022/01/06 02:33:23;;;;;;;5.20;1.50;;;;;;;1.08;98.30;98120.34;103000;1274;1003636;-67
2022/01/06 02:36:22;;;;;;;6.70;1.60;;;;;;;1.04;98.23;98130.83;105108;1273;71926;-67
2022/01/06 02:43:06;;;;;;;6.00;1.80;;;;;;;0.92;98.17;98149.59;105079;1278;59552;-67
2022/01/06 02:46:10;;;;;;;5.40;1.60;;;;;;;0.87;98.26;98156.39;104652;1278;73317;-68
2022/01/06 02:49:47;;;;;;;5.50;1.70;;;;;;;0.81;98.30;98162.35;104887;1278;67163;-67
2022/01/06 02:53:03;;;;;;;5.40;1.40;;;;;;;0.75;98.08;98167.70;104660;1278;71292;-67
2022/01/06 02:56:49;;;;;;;5.00;1.20;;;;;;;0.67;97.97;98163.34;104624;1277;59860;-67
2022/01/06 02:59:47;;;;;;;4.40;1.40;;;;;;;0.60;97.88;98165.36;104950;1278;60235;-67
2022/01/06 03:02:46;;;;;;;6.00;1.50;;;;;;;0.55;97.85;98168.33;104750;1278;70936;-67
2022/01/06 03:05:36;;;;;;;5.90;1.40;;;;;;;0.51;97.76;98171.20;104665;1280;66090;-67
2022/01/06 03:13:28;;;;;;;4.60;1.10;;;;;;;0.40;97.45;98183.81;104210;1281;59727;-67
2022/01/06 03:17:37;;;;;;;6.80;1.30;;;;;;;0.34;97.88;98194.78;104378;1281;59961;-68
2022/01/06 03:24:28;;;;;;;6.80;1.40;;;;;;;0.26;98.39;98206.15;103712;1281;1004225;-68
2022/01/06 03:27:42;;;;;;;7.50;1.50;;;;;;;0.25;98.29;98211.09;104635;1281;73100;-68
2022/01/06 03:30:52;;;;;;;5.00;1.20;;;;;;;0.23;97.81;98211.75;104796;1281;59966;-67
2022/01/06 03:34:08;;;;;;;4.60;1.30;;;;;;;0.21;97.56;98207.50;104731;1281;59957;-68
2022/01/06 03:37:26;;;;;;;4.50;1.30;;;;;;;0.16;97.09;98210.96;104915;1281;73532;-67
2022/01/06 03:40:41;;;;;;;4.80;1.10;;;;;;;0.12;97.17;98217.69;104551;1281;68264;-68
2022/01/06 03:43:53;;;;;;;5.30;1.60;;;;;;;0.05;96.98;98224.91;104248;1281;71681;-68
2022/01/06 03:46:59;;;;;;;5.10;1.30;;;;;;;0.01;97.13;98231.15;104342;1281;59535;-68
2022/01/06 03:50:13;;;;;;;5.60;1.50;;;;;;;-0.01;97.17;98235.94;105212;1273;60536;-68
2022/01/06 03:53:12;;;;;;;9.40;1.80;;;;;;;0.02;97.53;98239.78;105330;1273;73354;-67
2022/01/06 03:56:07;;;;;;;6.40;1.50;;;;;;;0.05;97.47;98249.69;105517;1273;68850;-68
2022/01/06 03:59:38;;;;;;;4.50;1.20;;;;;;;0.07;97.58;98257.42;104997;1272;71968;-68
2022/01/06 04:02:53;;;;;;;5.60;1.20;;;;;;;0.09;97.79;98259.42;105384;1273;59842;-70
2022/01/06 04:05:54;;;;;;;6.40;1.30;;;;;;;0.08;97.45;98266.23;104887;1274;59641;-67
2022/01/06 04:08:52;;;;;;;5.20;1.30;;;;;;;0.08;97.15;98270.25;105274;1274;73449;-67
2022/01/06 04:11:41;;;;;;;5.00;1.50;;;;;;;0.10;97.07;98272.05;104992;1272;66810;-67
2022/01/06 04:14:45;;;;;;;5.50;1.20;;;;;;;0.11;97.17;98280.69;105327;1274;71756;-68
2022/01/06 04:17:44;;;;;;;5.60;1.10;;;;;;;0.13;97.40;98292.23;105209;1273;59656;-68
2022/01/06 04:21:13;;;;;;;5.10;1.30;;;;;;;0.13;97.41;98296.09;105174;1274;59585;-67
2022/01/06 04:24:10;;;;;;;4.00;1.00;;;;;;;0.11;97.42;98301.65;105154;1274;71048;-68
2022/01/06 04:27:33;;;;;;;3.50;1.00;;;;;;;0.08;97.04;98309.33;105299;1274;67210;-67
2022/01/06 04:31:28;;;;;;;5.90;1.50;;;;;;;0.08;96.98;98313.01;105450;1274;73013;-67
2022/01/06 04:35:08;;;;;;;6.80;1.50;;;;;;;0.08;96.91;98321.57;105197;1274;59760;-67
2022/01/06 04:38:02;;;;;;;4.00;1.10;;;;;;;0.05;96.48;98326.27;105107;1273;59825;-67
2022/01/06 04:41:18;;;;;;;6.30;1.40;;;;;;;-0.02;96.22;98330.00;105329;1274;73092;-68
2022/01/06 04:44:54;;;;;;;7.00;1.50;;;;;;;-0.06;96.31;98334.11;105414;1274;66805;-69
2022/01/06 04:51:34;;;;;;;4.80;1.30;;;;;;;-0.16;96.75;98342.38;105391;1274;59703;-68
2022/01/06 04:54:23;;;;;;;5.70;1.40;;;;;;;-0.21;96.70;98337.94;104944;1274;59675;-68
2022/01/06 04:57:22;;;;;;;7.40;1.70;;;;;;;-0.26;96.43;98344.52;105118;1274;71914;-68
2022/01/06 05:00:14;;;;;;;6.40;1.50;;;;;;;-0.30;96.78;98356.80;105130;1274;67991;-68
2022/01/06 05:03:05;;;;;;;4.60;1.30;;;;;;;-0.35;96.47;98364.59;105130;1274;71732;-68
2022/01/06 05:06:40;;;;;;;5.60;1.40;;;;;;;-0.39;96.66;98375.11;105355;1274;59652;-67
2022/01/06 05:09:40;;;;;;;4.90;1.50;;;;;;;-0.39;97.16;98382.45;105570;1273;60260;-67
2022/01/06 05:12:33;;;;;;;5.40;1.20;;;;;;;-0.41;96.93;98388.84;104914;1274;72254;-67
2022/01/06 05:15:30;;;;;;;4.00;1.10;;;;;;;-0.45;97.00;98398.33;105380;1273;66690;-70
2022/01/06 05:18:24;;;;;;;5.40;1.30;;;;;;;-0.49;96.89;98404.14;104893;1274;71415;-67
2022/01/06 05:21:45;;;;;;;5.30;1.60;;;;;;;-0.51;96.85;98409.96;105692;1273;60211;-68
2022/01/06 05:24:43;;;;;;;5.80;1.50;;;;;;;-0.53;96.77;98413.77;105733;1273;59784;-66
2022/01/06 05:27:43;;;;;;;5.30;1.60;;;;;;;-0.54;96.86;98417.45;105262;1274;71904;-67
2022/01/06 05:31:10;;;;;;;5.60;1.40;;;;;;;-0.52;97.03;98426.23;105393;1274;66830;-67
2022/01/06 05:34:32;;;;;;;4.70;1.40;;;;;;;-0.52;97.29;98435.80;105271;1274;71497;-67
2022/01/06 05:38:21;;;;;;;5.90;1.30;;;;;;;-0.53;97.51;98439.16;105188;1273;59680;-67
2022/01/06 05:41:26;;;;;;;4.10;1.20;;;;;;;-0.61;97.11;98444.86;105664;1274;59592;-68
2022/01/06 05:44:36;;;;;;;4.70;1.40;;;;;;;-0.69;97.04;98454.06;105378;1274;73321;-68
2022/01/06 05:47:56;;;;;;;5.70;1.60;;;;;;;-0.76;97.27;98456.15;105417;1274;66600;-67
2022/01/06 05:55:19;;;;;;;4.10;1.00;;;;;;;-0.81;97.42;98474.21;105252;1274;59749;-68
2022/01/06 05:59:08;;;;;;;4.10;1.20;;;;;;;-0.83;96.93;98481.17;105159;1274;59611;-67
2022/01/06 06:02:12;;;;;;;3.80;1.10;;;;;;;-0.89;96.55;98481.47;103876;1274;1003085;-67
2022/01/06 06:05:04;;;;;;;4.60;1.20;;;;;;;-0.94;96.34;98480.16;104567;1274;1002680;-67
2022/01/06 06:08:24;;;;;;;5.20;1.20;;;;;;;-1.02;96.04;98490.69;104901;1273;72982;-67
2022/01/06 06:11:27;;;;;;;;;;;;;;;;;;;;;
2022/01/06 06:15:06;;;;;;;4.60;1.30;;;;;;;-1.12;96.10;98510.05;105335;1274;59525;-68
2022/01/06 06:18:06;;;;;;;8.00;1.50;;;;;;;-1.11;96.10;98518.02;104964;1273;403537;-68
2022/01/06 06:21:11;;;;;;;4.50;1.30;;;;;;;-1.10;96.12;98521.97;105374;1274;68066;-67
2022/01/06 06:24:10;;;;;;;6.50;1.40;;;;;;;-1.12;95.71;98523.46;104903;1274;72941;-67
2022/01/06 06:27:31;;;;;;;5.30;1.40;;;;;;;-1.17;95.82;98536.80;105280;1274;59721;-67
2022/01/06 06:30:22;;;;;;;4.20;1.20;;;;;;;-1.22;95.82;98547.84;105193;1274;59734;-67
2022/01/06 06:33:23;;;;;;;4.70;1.30;;;;;;;-1.28;95.84;98553.58;105538;1273;73267;-67
2022/01/06 06:36:35;;;;;;;5.10;1.40;;;;;;;-1.32;95.67;98562.14;105338;1274;66898;-68
2022/01/06 06:40:35;;;;;;;3.60;1.10;;;;;;;-1.37;95.56;98571.95;105969;1273;72304;-67
2022/01/06 06:43:54;;;;;;;4.30;1.10;;;;;;;-1.39;95.24;98582.50;105595;1274;59787;-68
2022/01/06 06:48:07;;;;;;;3.90;1.30;;;;;;;-1.41;95.20;98586.23;105124;1274;59904;-68
2022/01/06 06:51:15;;;;;;;5.70;1.20;;;;;;;-1.50;95.38;98594.73;105438;1274;73364;-67
2022/01/06 06:55:49;;;;;;;3.70;1.00;;;;;;;-1.59;95.46;98597.60;105536;1272;68041;-67
2022/01/06 06:59:38;;;;;;;5.00;1.40;;;;;;;-1.65;95.78;98614.61;104365;1281;72919;-68
2022/01/06 07:02:30;;;;;;;6.10;1.40;;;;;;;-1.68;96.09;98625.73;104778;1281;59678;-68
2022/01/06 07:05:36;;;;;;;4.50;1.20;;;;;;;-1.64;96.16;98634.73;104756;1281;60501;-68
2022/01/06 07:08:29;;;;;;;4.90;1.20;;;;;;;-1.65;96.09;98641.23;105057;1281;73991;-68
2022/01/06 07:11:52;;;;;;;5.90;1.20;;;;;;;-1.65;96.08;98646.80;104141;1281;68055;-68
2022/01/06 07:15:07;;;;;;;4.90;1.20;;;;;;;-1.71;95.72;98651.95;104640;1281;73017;-69
2022/01/06 07:18:00;;;;;;;4.40;1.10;;;;;;;-1.75;95.48;98665.19;105002;1281;59705;-68
2022/01/06 07:21:32;;;;;;;4.00;1.10;;;;;;;-1.75;95.29;98672.69;104624;1281;59745;-67
2022/01/06 07:24:36;;;;;;;4.40;1.10;;;;;;;-1.80;94.12;98680.07;104692;1281;71814;-68
2022/01/06 07:27:35;;;;;;;6.00;1.50;;;;;;;-1.85;94.12;98684.80;104996;1274;68517;-68
2022/01/06 07:30:33;;;;;;;5.20;1.50;;;;;;;-1.91;93.85;98687.72;104469;1274;1002980;-68
2022/01/06 07:33:25;;;;;;;5.00;1.10;;;;;;;-1.96;93.79;98686.55;105186;1273;60217;-68
2022/01/06 07:37:05;;;;;;;5.60;1.40;;;;;;;-1.98;93.99;98693.27;105108;1277;60730;-68
2022/01/06 07:40:36;;;;;;;5.90;1.30;;;;;;;-1.98;93.71;98702.81;104682;1277;73328;-68
2022/01/06 07:43:40;;;;;;;6.20;1.60;;;;;;;-2.03;92.70;98705.83;104899;1277;68374;-68
2022/01/06 07:46:40;;;;;;;7.10;1.80;;;;;;;-2.04;93.02;98714.42;104626;1277;72936;-67
2022/01/06 07:53:49;;;;;;;5.10;1.30;;;;;;;-2.03;93.58;98726.38;105115;1277;61783;-68
2022/01/06 07:57:32;;;;;;;6.60;1.60;;;;;;;-2.01;93.65;98733.04;105050;1277;74728;-68
2022/01/06 08:00:25;;;;;;;7.80;1.60;;;;;;;-2.00;92.71;98738.55;105199;1277;67969;-67
2022/01/06 08:03:28;;;;;;;5.80;1.60;;;;;;;-1.94;92.59;98743.83;105027;1277;71537;-68
2022/01/06 08:07:07;;;;;;;5.80;1.60;;;;;;;-1.86;91.91;98744.00;104883;1277;59764;-69
2022/01/06 08:10:11;;;;;;;5.80;1.50;;;;;;;-1.84;91.12;98743.91;105083;1277;59932;-69
2022/01/06 08:13:04;;;;;;;5.50;1.60;;;;;;;-1.84;91.37;98747.36;104836;1274;72459;-68
2022/01/06 08:16:11;;;;;;;6.40;1.80;;;;;;;-1.85;90.66;98751.91;105079;1273;68423;-68
2022/01/06 08:19:20;;;;;;;6.00;1.80;;;;;;;-1.85;91.05;98757.86;105056;1273;73168;-68
2022/01/06 08:22:16;;;;;;;6.60;2.30;;;;;;;-1.86;90.49;98759.30;105538;1274;59591;-68
2022/01/06 08:25:11;;;;;;;5.90;1.50;;;;;;;-1.89;90.39;98769.67;105010;1274;60653;-69
2022/01/06 08:28:09;;;;;;;6.10;1.90;;;;;;;-1.93;88.83;98771.11;105362;1273;73297;-68
2022/01/06 08:31:19;;;;;;;6.00;1.50;;;;;;;-2.00;88.60;98768.98;105119;1274;67974;-68
2022/01/06 08:34:12;;;;;;;5.20;1.50;;;;;;;-2.03;88.75;98777.50;105368;1274;72752;-68
2022/01/06 08:37:06;;;;;;;5.40;1.30;;;;;;;-2.10;87.51;98785.45;105079;1273;59713;-68
2022/01/06 08:40:14;;;;;;;5.20;1.40;;;;;;;-2.13;87.46;98792.71;105362;1273;59769;-68
2022/01/06 08:43:56;;;;;;;6.70;1.50;;;;;;;-2.14;86.85;98802.48;104912;1273;73225;-68
2022/01/06 08:47:15;;;;;;;5.00;1.20;;;;;;;-2.16;85.88;98802.58;104451;1273;1003668;-68
2022/01/06 08:50:06;;;;;;;5.90;1.60;;;;;;;-2.18;85.76;98811.55;104841;1273;73155;-68
2022/01/06 08:53:38;;;;;;;5.50;1.50;;;;;;;-2.18;86.05;98818.64;104994;1273;59567;-68
2022/01/06 08:56:31;;;;;;;6.80;2.00;;;;;;;-2.16;85.78;98822.94;105199;1273;60450;-69
2022/01/06 09:00:23;;;;;;;4.70;1.20;;;;;;;-2.13;86.24;98832.48;105147;1273;74630;-69
2022/01/06 09:04:04;;;;;;;5.90;1.50;;;;;;;-2.10;87.33;98842.95;104711;1272;1002574;-69
2022/01/06 09:07:10;;;;;;;6.00;1.80;;;;;;;-2.11;87.80;98846.16;105473;1273;72987;-69
2022/01/06 09:10:34;;;;;;;6.50;1.70;;;;;;;-2.12;88.14;98852.64;104332;1277;1003158;-69
2022/01/06 09:13:53;;;;;;;6.10;1.70;;;;;;;-2.06;88.80;98861.91;104259;1277;1002962;-68
2022/01/06 09:20:52;;;;;;;5.70;1.50;;;;;;;-2.05;87.94;98871.23;105063;1277;68104;-68
2022/01/06 09:23:50;;;;;;;7.30;2.00;;;;;;;-2.02;88.41;98873.89;104476;1277;72883;-69
2022/01/06 09:26:48;;;;;;;5.50;1.50;;;;;;;-2.03;88.59;98879.34;104834;1277;59959;-69
2022/01/06 09:29:58;;;;;;;5.40;1.80;;;;;;;-2.09;88.76;98885.83;105348;1273;59676;-71
2022/01/06 09:33:07;;;;;;;6.50;1.50;;;;;;;-1.99;89.31;98882.45;105221;1274;73396;-68
2022/01/06 09:36:17;;;;;;;5.70;1.60;;;;;;;-1.71;89.08;98889.34;105206;1274;68427;-70
2022/01/06 09:39:11;;;;;;;5.50;1.90;;;;;;;-1.20;88.08;98891.30;105367;1274;72283;-70
2022/01/06 09:42:19;;;;;;;6.70;1.90;;;;;;;-0.93;85.53;98889.68;105034;1274;59736;-71
2022/01/06 09:45:47;;;;;;;4.70;1.20;;;;;;;-0.65;85.40;98891.80;105358;1274;60345;-70
2022/01/06 09:49:10;;;;;;;5.20;1.40;;;;;;;-0.32;82.97;98889.95;104971;1277;76274;-69
2022/01/06 10:02:57;;;;;;;5.50;1.40;;;;;;;0.70;79.19;98898.80;104011;1290;59685;-70
2022/01/06 10:13:15;;;;;;;6.50;1.90;;;;;;;-0.21;80.88;98917.96;104184;1284;74499;-70
2022/01/06 10:23:08;;;;;;;5.60;1.70;;;;;;;-0.42;82.63;98927.20;104883;1273;74243;-70
2022/01/06 10:31:22;;;;;;;7.00;2.40;;;;;;;-0.40;85.29;98947.69;105906;1273;59526;-71
2022/01/06 10:34:39;;;;;;;6.40;2.00;;;;;;;-0.54;85.03;98950.13;105207;1274;71875;-70
2022/01/06 10:43:00;;;;;;;7.90;2.10;;;;;;;-0.83;87.10;98955.73;104678;1282;72887;-70
2022/01/06 10:46:02;;;;;;;6.80;2.20;;;;;;;-0.97;87.62;98961.10;104991;1282;59790;-71
2022/01/06 10:49:19;;;;;;;6.10;1.80;;;;;;;-1.03;88.54;98967.65;104674;1282;59937;-71
2022/01/06 10:52:10;;;;;;;6.30;1.80;;;;;;;-1.10;88.77;98972.52;104602;1282;74055;-70
2022/01/06 10:55:19;;;;;;;7.20;1.80;;;;;;;-1.15;89.38;98973.96;104014;1281;66909;-70
2022/01/06 10:58:13;;;;;;;5.70;1.70;;;;;;;-1.15;89.10;98970.62;104520;1282;73605;-70
2022/01/06 11:01:08;;;;;;;6.60;1.80;;;;;;;-1.11;88.88;98979.36;104540;1281;59880;-70
2022/01/06 11:03:57;;;;;;;5.40;1.60;;;;;;;-1.12;88.61;98983.04;104337;1281;59786;-70
2022/01/06 11:06:59;;;;;;;6.50;1.70;;;;;;;-1.19;88.54;98987.71;104139;1282;72369;-70
2022/01/06 11:09:56;;;;;;;6.10;1.70;;;;;;;-1.26;88.57;98993.80;104152;1282;66789;-70
2022/01/06 11:12:45;;;;;;;7.10;2.00;;;;;;;-1.28;88.61;99003.10;104406;1282;73386;-70
2022/01/06 11:15:34;;;;;;;7.70;1.90;;;;;;;-1.32;88.95;99009.38;104134;1282;59882;-70
2022/01/06 11:18:32;;;;;;;6.30;1.80;;;;;;;-1.33;89.12;99018.33;104180;1277;60576;-70
2022/01/06 11:21:41;;;;;;;6.50;2.20;;;;;;;-1.36;89.09;99022.96;105228;1276;72618;-70
2022/01/06 11:24:29;;;;;;;7.50;2.10;;;;;;;-1.39;89.12;99028.64;104719;1276;67881;-71
2022/01/06 11:27:35;;;;;;;7.00;1.90;;;;;;;-1.45;89.17;99033.96;104896;1276;71500;-71
2022/01/06 11:30:47;;;;;;;7.70;2.20;;;;;;;-1.48;89.31;99038.61;104939;1276;59736;-70
2022/01/06 11:33:41;;;;;;;7.10;2.10;;;;;;;-1.48;89.35;99036.73;105184;1276;61326;-71
2022/01/06 11:36:36;;;;;;;7.10;2.40;;;;;;;-1.49;88.88;99044.43;105308;1276;73627;-70
2022/01/06 11:39:34;;;;;;;6.80;2.10;;;;;;;-1.50;88.72;99049.14;104091;1277;1003402;-71
2022/01/06 11:42:25;;;;;;;7.10;1.90;;;;;;;-1.50;89.00;99062.76;105136;1276;72941;-71
2022/01/06 11:45:25;;;;;;;6.60;2.20;;;;;;;-1.54;88.80;99064.83;105072;1277;59570;-72
2022/01/06 11:48:21;;;;;;;7.40;2.30;;;;;;;-1.55;88.48;99069.73;104381;1277;1002901;-71
2022/01/06 11:51:30;;;;;;;6.90;1.70;;;;;;;-1.52;88.30;99070.84;105179;1272;71812;-70
2022/01/06 11:54:23;;;;;;;7.30;2.00;;;;;;;-1.49;88.17;99080.43;105324;1273;67575;-70
2022/01/06 11:57:38;;;;;;;6.90;1.90;;;;;;;-1.46;87.47;99095.61;105257;1273;71587;-71
2022/01/06 12:00:29;;;;;;;6.30;1.60;;;;;;;-1.42;86.76;99099.79;104092;1273;1003611;-69
2022/01/06 12:03:19;;;;;;;6.80;1.90;;;;;;;-1.41;86.28;99108.25;105559;1273;59564;-70
2022/01/06 12:06:27;;;;;;;7.10;2.00;;;;;;;-1.41;85.86;99112.99;105166;1274;72098;-70
2022/01/06 12:09:24;;;;;;;6.90;2.00;;;;;;;-1.40;86.27;99113.29;105190;1273;66924;-70
2022/01/06 12:12:18;;;;;;;7.70;1.90;;;;;;;-1.41;85.67;99116.98;105166;1273;71927;-70
2022/01/06 12:15:20;;;;;;;6.70;2.00;;;;;;;-1.42;85.40;99124.84;105025;1272;59676;-70
2022/01/06 12:18:12;;;;;;;5.50;1.50;;;;;;;-1.40;85.04;99127.91;105144;1274;59750;-70
2022/01/06 12:21:31;;;;;;;6.30;1.80;;;;;;;-1.41;85.04;99132.46;105221;1274;71045;-70
2022/01/06 12:24:23;;;;;;;8.80;1.60;;;;;;;-1.39;84.91;99137.08;104736;1280;66974;-70
2022/01/06 12:27:13;;;;;;;5.60;1.60;;;;;;;-1.39;84.06;99140.04;104627;1281;71931;-69
2022/01/06 12:30:38;;;;;;;8.10;2.00;;;;;;;-1.41;83.92;99145.35;104716;1281;59840;-70
2022/01/06 12:40:45;;;;;;;7.30;2.10;;;;;;;-1.51;84.48;99168.92;104866;1281;67556;-70
2022/01/06 12:44:00;;;;;;;8.00;2.00;;;;;;;-1.57;84.72;99172.81;104633;1282;71990;-71
2022/01/06 12:46:52;;;;;;;6.60;1.90;;;;;;;-1.59;85.04;99178.98;104787;1281;59799;-70
2022/01/06 12:50:01;;;;;;;5.90;1.90;;;;;;;-1.57;84.86;99183.23;104449;1281;61219;-69
2022/01/06 12:52:50;;;;;;;6.60;1.60;;;;;;;-1.49;84.95;99191.97;104568;1281;71858;-70
2022/01/06 12:55:58;;;;;;;8.80;2.10;;;;;;;-1.43;84.37;99195.19;104345;1281;67937;-71
2022/01/06 12:59:15;;;;;;;7.90;2.10;;;;;;;-1.42;84.33;99202.62;103601;1281;1003883;-70
2022/01/06 13:03:05;;;;;;;7.00;1.90;;;;;;;-1.47;83.65;99212.41;104158;1276;1003344;-70
2022/01/06 13:06:33;;;;;;;8.70;2.80;;;;;;;-1.54;83.69;99216.88;105313;1273;60010;-70
2022/01/06 13:09:39;;;;;;;8.30;2.30;;;;;;;-1.61;83.41;99219.77;105561;1273;73064;-71
2022/01/06 13:12:31;;;;;;;10.80;2.30;;;;;;;-1.62;83.94;99224.16;104901;1273;67166;-71
2022/01/06 13:15:33;;;;;;;7.00;2.10;;;;;;;-1.62;83.37;99234.08;105239;1273;73037;-70
2022/01/06 13:18:27;;;;;;;7.80;2.30;;;;;;;-1.64;82.29;99242.88;105505;1273;59667;-71
2022/01/06 13:21:36;;;;;;;8.00;2.20;;;;;;;-1.67;81.54;99249.77;105088;1273;61235;-70
2022/01/06 13:24:40;;;;;;;7.00;2.10;;;;;;;-1.70;81.78;99258.23;105115;1273;72063;-70
2022/01/06 13:28:27;;;;;;;6.40;1.90;;;;;;;-1.77;80.36;99272.94;104381;1274;1003085;-71
2022/01/06 13:32:31;;;;;;;8.10;2.10;;;;;;;-1.78;80.57;99274.04;104872;1273;73052;-71
2022/01/06 13:35:26;;;;;;;6.60;1.80;;;;;;;-1.80;79.77;99279.52;105278;1273;59710;-71
2022/01/06 13:38:43;;;;;;;6.20;1.80;;;;;;;-1.82;79.59;99278.00;104471;1273;1002948;-69
2022/01/06 13:41:53;;;;;;;8.30;2.20;;;;;;;-1.84;77.69;99285.08;105399;1273;72074;-68
2022/01/06 13:52:44;;;;;;;5.10;1.30;;;;;;;-1.95;78.42;99306.87;105405;1274;59750;-69
2022/01/06 13:56:15;;;;;;;7.20;1.80;;;;;;;-1.98;78.45;99313.39;105210;1274;60584;-69
2022/01/06 14:00:36;;;;;;;7.10;1.90;;;;;;;-2.01;77.97;99321.50;105453;1273;73034;-69
2022/01/06 14:04:26;;;;;;;7.10;1.90;;;;;;;-2.02;78.10;99324.36;104676;1272;1002972;-69
2022/01/06 14:07:27;;;;;;;7.50;1.80;;;;;;;-2.04;78.16;99332.60;105361;1272;72898;-68
2022/01/06 14:11:31;;;;;;;;;;;;;;;;;;;;;
2022/01/06 14:15:59;;;;;;;5.50;1.60;;;;;;;-2.06;78.29;99346.72;104902;1274;1003396;-69
2022/01/06 14:20:19;;;;;;;6.20;1.70;;;;;;;-2.11;77.91;99352.99;105384;1274;73317;-68
2022/01/06 14:23:18;;;;;;;11.40;2.80;;;;;;;-2.24;78.13;99368.25;105446;1273;68074;-68
2022/01/06 14:26:55;;;;;;;8.90;2.40;;;;;;;-2.32;78.86;99374.45;105055;1273;71486;-69
2022/01/06 14:30:24;;;;;;;6.60;1.90;;;;;;;-2.38;78.62;99384.92;105379;1273;59788;-69
2022/01/06 14:33:37;;;;;;;6.60;2.00;;;;;;;-2.47;78.99;99389.75;105402;1274;60455;-69
2022/01/06 14:36:44;;;;;;;7.90;2.20;;;;;;;-2.52;78.93;99399.13;104965;1273;72479;-69
2022/01/06 14:39:38;;;;;;;9.10;2.30;;;;;;;-2.58;79.53;99406.27;105456;1273;68091;-69
2022/01/06 14:43:42;;;;;;;8.80;2.00;;;;;;;-2.63;79.98;99414.08;105593;1272;72745;-68
2022/01/06 15:00:16;;;;;;;;;;;;;;;;;;;;;
2022/01/06 15:14:42;;;;;;;7.00;2.00;;;;;;;-2.93;81.77;99485.23;103469;1293;59669;-68
2022/01/06 15:18:04;;;;;;;9.20;2.20;;;;;;;-3.02;81.80;99493.15;103436;1291;73139;-67
2022/01/06 15:21:06;;;;;;;7.00;2.10;;;;;;;-3.09;82.11;99505.16;103350;1291;68358;-68
2022/01/06 15:24:57;;;;;;;9.10;2.90;;;;;;;-3.12;82.57;99512.04;103573;1294;72990;-67
2022/01/06 15:28:15;;;;;;;10.40;2.30;;;;;;;-3.18;82.10;99520.54;103639;1291;59571;-67
2022/01/06 15:31:22;;;;;;;6.60;2.10;;;;;;;-3.23;82.25;99526.42;103556;1291;60424;-68
2022/01/06 15:35:27;;;;;;;10.10;2.60;;;;;;;-3.32;82.08;99532.73;103464;1291;73635;-69
2022/01/06 15:39:13;;;;;;;8.00;2.60;;;;;;;-3.42;82.51;99542.58;103713;1287;68024;-68
2022/01/06 15:43:24;;;;;;;9.80;3.20;;;;;;;-3.54;82.73;99550.00;104394;1285;72021;-69
2022/01/06 15:46:32;;;;;;;15.30;3.70;;;;;;;-3.63;83.03;99558.42;104368;1281;59865;-67
2022/01/06 15:49:28;;;;;;;11.40;3.90;;;;;;;-3.71;83.64;99560.89;103743;1279;1003073;-68
2022/01/06 15:52:40;;;;;;;16.80;5.80;;;;;;;-3.78;84.03;99562.80;103700;1279;1003081;-67
2022/01/06 16:06:43;;;;;;;16.10;5.60;;;;;;;-3.95;85.38;99584.57;104639;1279;60772;-68
2022/01/06 16:09:50;;;;;;;14.90;4.90;;;;;;;-3.99;85.49;99591.61;104339;1279;71309;-68
2022/01/06 16:12:43;;;;;;;12.30;4.10;;;;;;;-4.04;85.63;99589.15;104473;1279;68365;-69
2022/01/06 16:15:51;;;;;;;12.30;4.10;;;;;;;-4.10;85.72;99598.64;104651;1279;71698;-68
2022/01/06 16:18:50;;;;;;;12.70;4.30;;;;;;;-4.16;85.90;99604.52;104274;1279;59679;-67
2022/01/06 16:21:39;;;;;;;11.40;3.60;;;;;;;-4.21;86.02;99608.12;104164;1281;59697;-68
2022/01/06 16:24:33;;;;;;;13.60;3.90;;;;;;;-4.28;86.24;99607.59;104742;1274;73399;-67
2022/01/06 16:27:22;;;;;;;13.90;4.30;;;;;;;-4.32;86.49;99613.40;104879;1273;67603;-67
2022/01/06 16:30:47;;;;;;;13.30;4.50;;;;;;;-4.35;86.56;99616.59;105015;1274;71155;-67
2022/01/06 16:34:20;;;;;;;13.30;4.00;;;;;;;-4.37;86.68;99620.10;105468;1273;59617;-67
2022/01/06 16:37:07;;;;;;;12.10;4.10;;;;;;;-4.37;86.58;99620.27;105193;1274;60300;-67
2022/01/06 16:40:13;;;;;;;11.70;3.80;;;;;;;-4.38;86.55;99619.25;104918;1274;73290;-68
2022/01/06 16:43:09;;;;;;;14.50;4.30;;;;;;;-4.40;86.84;99621.21;104654;1274;66092;-67
2022/01/06 16:45:57;;;;;;;12.80;3.90;;;;;;;-4.45;86.79;99627.19;104194;1274;1003798;-68
2022/01/06 16:48:51;;;;;;;11.90;3.70;;;;;;;-4.49;87.13;99629.71;104836;1274;59787;-67
2022/01/06 16:51:38;;;;;;;13.40;3.90;;;;;;;-4.53;87.24;99628.42;104761;1274;60974;-67
2022/01/06 16:54:26;;;;;;;16.20;3.70;;;;;;;-4.57;87.37;99628.34;104568;1274;71665;-67
2022/01/06 16:57:17;;;;;;;14.70;4.90;;;;;;;-4.59;87.28;99631.16;104158;1274;1016151;-67
2022/01/06 17:00:07;;;;;;;14.80;5.60;;;;;;;-4.61;87.32;99631.91;104764;1274;70805;-67
2022/01/06 17:02:57;;;;;;;18.50;6.10;;;;;;;-4.60;87.21;99639.49;105117;1274;59788;-67
2022/01/06 17:05:45;;;;;;;16.70;5.60;;;;;;;-4.60;87.43;99647.13;104890;1272;59611;-66
2022/01/06 17:08:32;;;;;;;18.10;5.70;;;;;;;-4.62;87.73;99647.51;104791;1274;73480;-67
2022/01/06 17:11:20;;;;;;;17.30;4.60;;;;;;;-4.63;87.49;99650.79;104824;1273;68965;-67
2022/01/06 17:14:12;;;;;;;17.80;6.20;;;;;;;-4.65;87.50;99650.70;104776;1274;72867;-66
2022/01/06 17:17:01;;;;;;;20.80;6.50;;;;;;;-4.68;87.22;99655.07;104177;1274;1003658;-66
2022/01/06 17:19:49;;;;;;;18.90;6.50;;;;;;;-4.70;87.39;99657.21;104792;1274;59914;-67